sensor_id;sensor_type;location;lat;lon;timestamp;pressure;altitude;pressure_sealevel;temperature
12854;BMP180;6495;51.808;7.478;2023-06-22T00:00:35;101427.00;;;22.90
12854;BMP180;6495;51.808;7.478;2023-06-22T00:03:05;101436.00;;;22.90
12854;BMP180;6495;51.808;7.478;2023-06-22T00:05:33;101432.00;;;22.80
12854;BMP180;6495;51.808;7.478;2023-06-22T00:08:04;101435.00;;;22.70
12854;BMP180;6495;51.808;7.478;2023-06-22T00:10:32;101426.00;;;22.70
12854;BMP180;6495;51.808;7.478;2023-06-22T00:13:01;101437.00;;;22.70
12854;BMP180;6495;51.808;7.478;2023-06-22T00:15:29;101425.00;;;22.70
12854;BMP180;6495;51.808;7.478;2023-06-22T00:17:57;101424.00;;;22.70
12854;BMP180;6495;51.808;7.478;2023-06-22T00:20:27;101418.00;;;22.60
12854;BMP180;6495;51.808;7.478;2023-06-22T00:22:59;101411.00;;;22.50
12854;BMP180;6495;51.808;7.478;2023-06-22T00:25:28;101406.00;;;22.40
12854;BMP180;6495;51.808;7.478;2023-06-22T00:27:56;101409.00;;;22.30
12854;BMP180;6495;51.808;7.478;2023-06-22T00:30:27;101405.00;;;22.30
12854;BMP180;6495;51.808;7.478;2023-06-22T00:33:00;101420.00;;;22.30
12854;BMP180;6495;51.808;7.478;2023-06-22T00:35:30;101427.00;;;22.30
12854;BMP180;6495;51.808;7.478;2023-06-22T00:38:00;101426.00;;;22.30
12854;BMP180;6495;51.808;7.478;2023-06-22T00:40:30;101422.00;;;22.30
12854;BMP180;6495;51.808;7.478;2023-06-22T00:42:59;101414.00;;;22.30
12854;BMP180;6495;51.808;7.478;2023-06-22T00:45:28;101415.00;;;22.20
12854;BMP180;6495;51.808;7.478;2023-06-22T00:47:58;101413.00;;;22.10
12854;BMP180;6495;51.808;7.478;2023-06-22T00:50:32;101414.00;;;22.10
12854;BMP180;6495;51.808;7.478;2023-06-22T00:53:05;101416.00;;;22.10
12854;BMP180;6495;51.808;7.478;2023-06-22T00:55:38;101412.00;;;22.10
12854;BMP180;6495;51.808;7.478;2023-06-22T00:58:11;101415.00;;;22.00
12854;BMP180;6495;51.808;7.478;2023-06-22T01:00:41;101411.00;;;22.10
12854;BMP180;6495;51.808;7.478;2023-06-22T01:03:09;101403.00;;;22.10
12854;BMP180;6495;51.808;7.478;2023-06-22T01:05:40;101404.00;;;22.10
12854;BMP180;6495;51.808;7.478;2023-06-22T01:08:26;101405.00;;;22.10
12854;BMP180;6495;51.808;7.478;2023-06-22T01:11:09;101412.00;;;22.10
12854;BMP180;6495;51.808;7.478;2023-06-22T01:13:58;101409.00;;;22.10
12854;BMP180;6495;51.808;7.478;2023-06-22T01:16:31;101405.00;;;22.10
12854;BMP180;6495;51.808;7.478;2023-06-22T01:19:09;101399.00;;;22.10
12854;BMP180;6495;51.808;7.478;2023-06-22T01:21:46;101402.00;;;22.10
12854;BMP180;6495;51.808;7.478;2023-06-22T01:24:23;101404.00;;;22.10
12854;BMP180;6495;51.808;7.478;2023-06-22T01:27:00;101403.00;;;22.10
12854;BMP180;6495;51.808;7.478;2023-06-22T01:29:37;101405.00;;;22.10
12854;BMP180;6495;51.808;7.478;2023-06-22T01:32:07;101401.00;;;22.10
12854;BMP180;6495;51.808;7.478;2023-06-22T01:34:38;101400.00;;;22.10
12854;BMP180;6495;51.808;7.478;2023-06-22T01:37:08;101405.00;;;22.10
12854;BMP180;6495;51.808;7.478;2023-06-22T01:39:36;101396.00;;;22.10
12854;BMP180;6495;51.808;7.478;2023-06-22T01:42:06;101396.00;;;22.10
12854;BMP180;6495;51.808;7.478;2023-06-22T01:44:37;101389.00;;;22.10
12854;BMP180;6495;51.808;7.478;2023-06-22T01:47:09;101387.00;;;22.10
12854;BMP180;6495;51.808;7.478;2023-06-22T01:49:37;101387.00;;;22.10
12854;BMP180;6495;51.808;7.478;2023-06-22T01:52:07;101388.00;;;22.10
12854;BMP180;6495;51.808;7.478;2023-06-22T01:54:37;101390.00;;;22.10
12854;BMP180;6495;51.808;7.478;2023-06-22T01:57:06;101390.00;;;22.00
12854;BMP180;6495;51.808;7.478;2023-06-22T01:59:49;101390.00;;;22.00
12854;BMP180;6495;51.808;7.478;2023-06-22T02:02:22;101400.00;;;22.00
12854;BMP180;6495;51.808;7.478;2023-06-22T02:05:00;101392.00;;;21.90
12854;BMP180;6495;51.808;7.478;2023-06-22T02:07:41;101396.00;;;21.90
12854;BMP180;6495;51.808;7.478;2023-06-22T02:10:15;101395.00;;;21.80
12854;BMP180;6495;51.808;7.478;2023-06-22T02:12:46;101387.00;;;21.80
12854;BMP180;6495;51.808;7.478;2023-06-22T02:15:16;101392.00;;;21.70
12854;BMP180;6495;51.808;7.478;2023-06-22T02:17:47;101395.00;;;21.70
12854;BMP180;6495;51.808;7.478;2023-06-22T02:20:16;101397.00;;;21.70
12854;BMP180;6495;51.808;7.478;2023-06-22T02:22:44;101391.00;;;21.70
12854;BMP180;6495;51.808;7.478;2023-06-22T02:25:12;101402.00;;;21.60
12854;BMP180;6495;51.808;7.478;2023-06-22T02:27:41;101409.00;;;21.70
12854;BMP180;6495;51.808;7.478;2023-06-22T02:30:10;101401.00;;;21.70
12854;BMP180;6495;51.808;7.478;2023-06-22T02:32:40;101396.00;;;21.70
12854;BMP180;6495;51.808;7.478;2023-06-22T02:35:09;101387.00;;;21.70
12854;BMP180;6495;51.808;7.478;2023-06-22T02:37:38;101388.00;;;21.60
12854;BMP180;6495;51.808;7.478;2023-06-22T02:40:09;101390.00;;;21.60
12854;BMP180;6495;51.808;7.478;2023-06-22T02:42:40;101394.00;;;21.60
12854;BMP180;6495;51.808;7.478;2023-06-22T02:45:09;101389.00;;;21.60
12854;BMP180;6495;51.808;7.478;2023-06-22T02:47:37;101391.00;;;21.60
12854;BMP180;6495;51.808;7.478;2023-06-22T02:50:08;101391.00;;;21.60
12854;BMP180;6495;51.808;7.478;2023-06-22T02:52:37;101387.00;;;21.60
12854;BMP180;6495;51.808;7.478;2023-06-22T02:55:07;101381.00;;;21.60
12854;BMP180;6495;51.808;7.478;2023-06-22T02:57:36;101391.00;;;21.50
12854;BMP180;6495;51.808;7.478;2023-06-22T03:00:06;101386.00;;;21.50
12854;BMP180;6495;51.808;7.478;2023-06-22T03:02:46;101377.00;;;21.40
12854;BMP180;6495;51.808;7.478;2023-06-22T03:05:17;101384.00;;;21.30
12854;BMP180;6495;51.808;7.478;2023-06-22T03:07:47;101382.00;;;21.20
12854;BMP180;6495;51.808;7.478;2023-06-22T03:10:16;101384.00;;;21.20
12854;BMP180;6495;51.808;7.478;2023-06-22T03:12:44;101374.00;;;21.10
12854;BMP180;6495;51.808;7.478;2023-06-22T03:15:13;101368.00;;;21.10
12854;BMP180;6495;51.808;7.478;2023-06-22T03:17:42;101373.00;;;21.10
12854;BMP180;6495;51.808;7.478;2023-06-22T03:20:10;101366.00;;;21.10
12854;BMP180;6495;51.808;7.478;2023-06-22T03:22:42;101364.00;;;21.00
12854;BMP180;6495;51.808;7.478;2023-06-22T03:25:11;101369.00;;;20.90
12854;BMP180;6495;51.808;7.478;2023-06-22T03:27:43;101371.00;;;20.80
12854;BMP180;6495;51.808;7.478;2023-06-22T03:30:12;101367.00;;;20.80
12854;BMP180;6495;51.808;7.478;2023-06-22T03:32:40;101368.00;;;20.80
12854;BMP180;6495;51.808;7.478;2023-06-22T03:35:10;101365.00;;;20.90
12854;BMP180;6495;51.808;7.478;2023-06-22T03:37:41;101362.00;;;20.90
12854;BMP180;6495;51.808;7.478;2023-06-22T03:40:11;101368.00;;;20.90
12854;BMP180;6495;51.808;7.478;2023-06-22T03:42:40;101367.00;;;20.90
12854;BMP180;6495;51.808;7.478;2023-06-22T03:45:10;101366.00;;;20.90
12854;BMP180;6495;51.808;7.478;2023-06-22T03:47:38;101368.00;;;21.00
12854;BMP180;6495;51.808;7.478;2023-06-22T03:50:08;101375.00;;;21.00
12854;BMP180;6495;51.808;7.478;2023-06-22T03:52:36;101365.00;;;21.00
12854;BMP180;6495;51.808;7.478;2023-06-22T03:55:08;101362.00;;;21.00
12854;BMP180;6495;51.808;7.478;2023-06-22T03:57:36;101358.00;;;21.00
12854;BMP180;6495;51.808;7.478;2023-06-22T04:00:06;101357.00;;;21.00
12854;BMP180;6495;51.808;7.478;2023-06-22T04:02:41;101361.00;;;21.00
12854;BMP180;6495;51.808;7.478;2023-06-22T04:05:10;101350.00;;;21.00
12854;BMP180;6495;51.808;7.478;2023-06-22T04:07:38;101358.00;;;21.00
12854;BMP180;6495;51.808;7.478;2023-06-22T04:10:09;101339.00;;;20.90
12854;BMP180;6495;51.808;7.478;2023-06-22T04:12:39;101346.00;;;20.80
12854;BMP180;6495;51.808;7.478;2023-06-22T04:15:09;101347.00;;;20.80
12854;BMP180;6495;51.808;7.478;2023-06-22T04:17:39;101352.00;;;20.80
12854;BMP180;6495;51.808;7.478;2023-06-22T04:20:09;101355.00;;;20.70
12854;BMP180;6495;51.808;7.478;2023-06-22T04:22:39;101349.00;;;20.70
12854;BMP180;6495;51.808;7.478;2023-06-22T04:25:14;101344.00;;;20.70
12854;BMP180;6495;51.808;7.478;2023-06-22T04:27:42;101345.00;;;20.70
12854;BMP180;6495;51.808;7.478;2023-06-22T04:30:12;101349.00;;;20.70
12854;BMP180;6495;51.808;7.478;2023-06-22T04:32:45;101356.00;;;20.70
12854;BMP180;6495;51.808;7.478;2023-06-22T04:35:23;101348.00;;;20.60
12854;BMP180;6495;51.808;7.478;2023-06-22T04:37:53;101343.00;;;20.60
12854;BMP180;6495;51.808;7.478;2023-06-22T04:40:23;101344.00;;;20.60
12854;BMP180;6495;51.808;7.478;2023-06-22T04:42:53;101334.00;;;20.70
12854;BMP180;6495;51.808;7.478;2023-06-22T04:45:21;101333.00;;;20.70
12854;BMP180;6495;51.808;7.478;2023-06-22T04:47:49;101339.00;;;20.70
12854;BMP180;6495;51.808;7.478;2023-06-22T04:50:18;101331.00;;;20.80
12854;BMP180;6495;51.808;7.478;2023-06-22T04:52:48;101325.00;;;20.80
12854;BMP180;6495;51.808;7.478;2023-06-22T04:55:19;101324.00;;;20.90
12854;BMP180;6495;51.808;7.478;2023-06-22T04:57:49;101327.00;;;20.90
12854;BMP180;6495;51.808;7.478;2023-06-22T05:00:18;101328.00;;;20.90
12854;BMP180;6495;51.808;7.478;2023-06-22T05:02:50;101327.00;;;20.90
12854;BMP180;6495;51.808;7.478;2023-06-22T05:05:25;101328.00;;;21.00
12854;BMP180;6495;51.808;7.478;2023-06-22T05:07:56;101328.00;;;21.00
12854;BMP180;6495;51.808;7.478;2023-06-22T05:10:27;101317.00;;;21.00
12854;BMP180;6495;51.808;7.478;2023-06-22T05:12:57;101325.00;;;21.10
12854;BMP180;6495;51.808;7.478;2023-06-22T05:15:25;101325.00;;;21.10
12854;BMP180;6495;51.808;7.478;2023-06-22T05:17:57;101325.00;;;21.10
12854;BMP180;6495;51.808;7.478;2023-06-22T05:20:25;101328.00;;;21.20
12854;BMP180;6495;51.808;7.478;2023-06-22T05:22:54;101334.00;;;21.20
12854;BMP180;6495;51.808;7.478;2023-06-22T05:25:22;101330.00;;;21.20
12854;BMP180;6495;51.808;7.478;2023-06-22T05:27:50;101329.00;;;21.20
12854;BMP180;6495;51.808;7.478;2023-06-22T05:30:20;101335.00;;;21.20
12854;BMP180;6495;51.808;7.478;2023-06-22T05:32:48;101340.00;;;21.20
12854;BMP180;6495;51.808;7.478;2023-06-22T05:35:16;101329.00;;;21.20
12854;BMP180;6495;51.808;7.478;2023-06-22T05:37:44;101326.00;;;21.30
12854;BMP180;6495;51.808;7.478;2023-06-22T05:40:13;101330.00;;;21.40
12854;BMP180;6495;51.808;7.478;2023-06-22T05:42:41;101334.00;;;21.40
12854;BMP180;6495;51.808;7.478;2023-06-22T05:45:10;101332.00;;;21.50
12854;BMP180;6495;51.808;7.478;2023-06-22T05:47:39;101328.00;;;21.50
12854;BMP180;6495;51.808;7.478;2023-06-22T05:50:08;101330.00;;;21.50
12854;BMP180;6495;51.808;7.478;2023-06-22T05:52:39;101325.00;;;21.60
12854;BMP180;6495;51.808;7.478;2023-06-22T05:55:08;101332.00;;;21.70
12854;BMP180;6495;51.808;7.478;2023-06-22T05:57:37;101333.00;;;21.70
12854;BMP180;6495;51.808;7.478;2023-06-22T06:00:07;101330.00;;;21.70
12854;BMP180;6495;51.808;7.478;2023-06-22T06:02:39;101348.00;;;21.70
12854;BMP180;6495;51.808;7.478;2023-06-22T06:05:11;101341.00;;;21.80
12854;BMP180;6495;51.808;7.478;2023-06-22T06:07:41;101345.00;;;21.80
12854;BMP180;6495;51.808;7.478;2023-06-22T06:10:09;101348.00;;;21.80
12854;BMP180;6495;51.808;7.478;2023-06-22T06:12:38;101359.00;;;21.90
12854;BMP180;6495;51.808;7.478;2023-06-22T06:15:07;101370.00;;;21.90
12854;BMP180;6495;51.808;7.478;2023-06-22T06:17:47;101373.00;;;22.00
12854;BMP180;6495;51.808;7.478;2023-06-22T06:20:15;101367.00;;;22.00
12854;BMP180;6495;51.808;7.478;2023-06-22T06:22:44;101379.00;;;22.00
12854;BMP180;6495;51.808;7.478;2023-06-22T06:25:12;101383.00;;;22.00
12854;BMP180;6495;51.808;7.478;2023-06-22T06:27:43;101380.00;;;22.00
12854;BMP180;6495;51.808;7.478;2023-06-22T06:30:13;101372.00;;;22.00
12854;BMP180;6495;51.808;7.478;2023-06-22T06:32:42;101376.00;;;22.00
12854;BMP180;6495;51.808;7.478;2023-06-22T06:35:15;101371.00;;;22.00
12854;BMP180;6495;51.808;7.478;2023-06-22T06:37:47;101373.00;;;22.00
12854;BMP180;6495;51.808;7.478;2023-06-22T06:40:18;101369.00;;;22.10
12854;BMP180;6495;51.808;7.478;2023-06-22T06:42:48;101364.00;;;22.10
12854;BMP180;6495;51.808;7.478;2023-06-22T06:45:19;101376.00;;;22.20
12854;BMP180;6495;51.808;7.478;2023-06-22T06:47:50;101361.00;;;22.20
12854;BMP180;6495;51.808;7.478;2023-06-22T06:50:20;101358.00;;;22.20
12854;BMP180;6495;51.808;7.478;2023-06-22T06:52:49;101356.00;;;22.20
12854;BMP180;6495;51.808;7.478;2023-06-22T06:55:18;101358.00;;;22.20
12854;BMP180;6495;51.808;7.478;2023-06-22T06:57:47;101357.00;;;22.20
12854;BMP180;6495;51.808;7.478;2023-06-22T07:00:18;101351.00;;;22.20
12854;BMP180;6495;51.808;7.478;2023-06-22T07:02:46;101352.00;;;22.20
12854;BMP180;6495;51.808;7.478;2023-06-22T07:05:16;101342.00;;;22.20
12854;BMP180;6495;51.808;7.478;2023-06-22T07:07:45;101345.00;;;22.20
12854;BMP180;6495;51.808;7.478;2023-06-22T07:10:13;101346.00;;;22.30
12854;BMP180;6495;51.808;7.478;2023-06-22T07:12:43;101349.00;;;22.30
12854;BMP180;6495;51.808;7.478;2023-06-22T07:15:11;101336.00;;;22.40
12854;BMP180;6495;51.808;7.478;2023-06-22T07:17:40;101332.00;;;22.30
12854;BMP180;6495;51.808;7.478;2023-06-22T07:20:10;101332.00;;;22.40
12854;BMP180;6495;51.808;7.478;2023-06-22T07:22:40;101329.00;;;22.40
12854;BMP180;6495;51.808;7.478;2023-06-22T07:25:10;101327.00;;;22.40
12854;BMP180;6495;51.808;7.478;2023-06-22T07:27:47;101331.00;;;22.40
12854;BMP180;6495;51.808;7.478;2023-06-22T07:30:24;101333.00;;;22.40
12854;BMP180;6495;51.808;7.478;2023-06-22T07:32:53;101334.00;;;22.50
12854;BMP180;6495;51.808;7.478;2023-06-22T07:35:21;101332.00;;;22.50
12854;BMP180;6495;51.808;7.478;2023-06-22T07:37:49;101326.00;;;22.50
12854;BMP180;6495;51.808;7.478;2023-06-22T07:40:19;101323.00;;;22.60
12854;BMP180;6495;51.808;7.478;2023-06-22T07:42:47;101324.00;;;22.60
12854;BMP180;6495;51.808;7.478;2023-06-22T07:45:18;101332.00;;;22.60
12854;BMP180;6495;51.808;7.478;2023-06-22T07:47:47;101327.00;;;22.60
12854;BMP180;6495;51.808;7.478;2023-06-22T07:50:15;101324.00;;;22.60
12854;BMP180;6495;51.808;7.478;2023-06-22T07:52:43;101314.00;;;22.70
12854;BMP180;6495;51.808;7.478;2023-06-22T07:55:11;101313.00;;;22.70
12854;BMP180;6495;51.808;7.478;2023-06-22T07:57:41;101315.00;;;22.70
12854;BMP180;6495;51.808;7.478;2023-06-22T08:00:11;101317.00;;;22.80
12854;BMP180;6495;51.808;7.478;2023-06-22T08:02:45;101316.00;;;22.80
12854;BMP180;6495;51.808;7.478;2023-06-22T08:05:15;101314.00;;;22.80
12854;BMP180;6495;51.808;7.478;2023-06-22T08:07:48;101310.00;;;22.80
12854;BMP180;6495;51.808;7.478;2023-06-22T08:10:19;101308.00;;;22.90
12854;BMP180;6495;51.808;7.478;2023-06-22T08:12:49;101304.00;;;22.90
12854;BMP180;6495;51.808;7.478;2023-06-22T08:15:18;101306.00;;;22.90
12854;BMP180;6495;51.808;7.478;2023-06-22T08:17:47;101298.00;;;22.90
12854;BMP180;6495;51.808;7.478;2023-06-22T08:20:15;101297.00;;;22.90
12854;BMP180;6495;51.808;7.478;2023-06-22T08:22:43;101298.00;;;23.00
12854;BMP180;6495;51.808;7.478;2023-06-22T08:25:12;101291.00;;;23.00
12854;BMP180;6495;51.808;7.478;2023-06-22T08:27:45;101282.00;;;22.90
12854;BMP180;6495;51.808;7.478;2023-06-22T08:30:16;101269.00;;;23.00
12854;BMP180;6495;51.808;7.478;2023-06-22T08:32:45;101269.00;;;23.00
12854;BMP180;6495;51.808;7.478;2023-06-22T08:35:14;101272.00;;;23.00
12854;BMP180;6495;51.808;7.478;2023-06-22T08:37:42;101280.00;;;23.10
12854;BMP180;6495;51.808;7.478;2023-06-22T08:40:11;101279.00;;;23.10
12854;BMP180;6495;51.808;7.478;2023-06-22T08:42:41;101272.00;;;23.20
12854;BMP180;6495;51.808;7.478;2023-06-22T08:45:10;101269.00;;;23.30
12854;BMP180;6495;51.808;7.478;2023-06-22T08:47:41;101274.00;;;23.30
12854;BMP180;6495;51.808;7.478;2023-06-22T08:50:11;101263.00;;;23.30
12854;BMP180;6495;51.808;7.478;2023-06-22T08:52:40;101253.00;;;23.40
12854;BMP180;6495;51.808;7.478;2023-06-22T08:55:10;101247.00;;;23.50
12854;BMP180;6495;51.808;7.478;2023-06-22T08:57:38;101245.00;;;23.50
12854;BMP180;6495;51.808;7.478;2023-06-22T09:00:08;101238.00;;;23.60
12854;BMP180;6495;51.808;7.478;2023-06-22T09:02:45;101229.00;;;23.70
12854;BMP180;6495;51.808;7.478;2023-06-22T09:05:14;101230.00;;;23.70
12854;BMP180;6495;51.808;7.478;2023-06-22T09:07:42;101223.00;;;23.80
12854;BMP180;6495;51.808;7.478;2023-06-22T09:10:11;101222.00;;;23.90
12854;BMP180;6495;51.808;7.478;2023-06-22T09:12:39;101209.00;;;24.00
12854;BMP180;6495;51.808;7.478;2023-06-22T09:15:08;101205.00;;;24.10
12854;BMP180;6495;51.808;7.478;2023-06-22T09:17:54;101215.00;;;24.10
12854;BMP180;6495;51.808;7.478;2023-06-22T09:20:22;101220.00;;;24.20
12854;BMP180;6495;51.808;7.478;2023-06-22T09:22:51;101219.00;;;24.30
12854;BMP180;6495;51.808;7.478;2023-06-22T09:25:19;101227.00;;;24.40
12854;BMP180;6495;51.808;7.478;2023-06-22T09:27:47;101228.00;;;24.40
12854;BMP180;6495;51.808;7.478;2023-06-22T09:30:16;101230.00;;;24.50
12854;BMP180;6495;51.808;7.478;2023-06-22T09:32:44;101222.00;;;24.60
12854;BMP180;6495;51.808;7.478;2023-06-22T09:35:14;101230.00;;;24.60
12854;BMP180;6495;51.808;7.478;2023-06-22T09:37:42;101229.00;;;24.70
12854;BMP180;6495;51.808;7.478;2023-06-22T09:40:11;101230.00;;;24.80
12854;BMP180;6495;51.808;7.478;2023-06-22T09:42:42;101224.00;;;24.80
12854;BMP180;6495;51.808;7.478;2023-06-22T09:45:11;101229.00;;;24.90
12854;BMP180;6495;51.808;7.478;2023-06-22T09:47:39;101225.00;;;24.80
12854;BMP180;6495;51.808;7.478;2023-06-22T09:50:08;101230.00;;;24.90
12854;BMP180;6495;51.808;7.478;2023-06-22T09:52:38;101228.00;;;24.90
12854;BMP180;6495;51.808;7.478;2023-06-22T09:55:14;101229.00;;;24.90
12854;BMP180;6495;51.808;7.478;2023-06-22T09:57:45;101219.00;;;24.90
12854;BMP180;6495;51.808;7.478;2023-06-22T10:00:17;101220.00;;;25.00
12854;BMP180;6495;51.808;7.478;2023-06-22T10:02:46;101218.00;;;25.00
12854;BMP180;6495;51.808;7.478;2023-06-22T10:05:15;101220.00;;;25.10
12854;BMP180;6495;51.808;7.478;2023-06-22T10:07:45;101219.00;;;25.10
12854;BMP180;6495;51.808;7.478;2023-06-22T10:10:13;101217.00;;;25.10
12854;BMP180;6495;51.808;7.478;2023-06-22T10:12:46;101210.00;;;25.10
12854;BMP180;6495;51.808;7.478;2023-06-22T10:15:15;101206.00;;;25.20
12854;BMP180;6495;51.808;7.478;2023-06-22T10:17:44;101203.00;;;25.20
12854;BMP180;6495;51.808;7.478;2023-06-22T10:20:12;101207.00;;;25.30
12854;BMP180;6495;51.808;7.478;2023-06-22T10:22:43;101196.00;;;25.30
12854;BMP180;6495;51.808;7.478;2023-06-22T10:25:13;101192.00;;;25.40
12854;BMP180;6495;51.808;7.478;2023-06-22T10:27:42;101194.00;;;25.40
12854;BMP180;6495;51.808;7.478;2023-06-22T10:30:12;101194.00;;;25.50
12854;BMP180;6495;51.808;7.478;2023-06-22T10:32:42;101197.00;;;25.60
12854;BMP180;6495;51.808;7.478;2023-06-22T10:35:11;101191.00;;;25.60
12854;BMP180;6495;51.808;7.478;2023-06-22T10:37:42;101200.00;;;25.60
12854;BMP180;6495;51.808;7.478;2023-06-22T10:40:14;101183.00;;;25.70
12854;BMP180;6495;51.808;7.478;2023-06-22T10:42:43;101180.00;;;25.70
12854;BMP180;6495;51.808;7.478;2023-06-22T10:45:11;101175.00;;;25.70
12854;BMP180;6495;51.808;7.478;2023-06-22T10:47:40;101173.00;;;25.70
12854;BMP180;6495;51.808;7.478;2023-06-22T10:50:12;101169.00;;;25.80
12854;BMP180;6495;51.808;7.478;2023-06-22T10:52:41;101168.00;;;25.80
12854;BMP180;6495;51.808;7.478;2023-06-22T10:55:11;101160.00;;;25.90
12854;BMP180;6495;51.808;7.478;2023-06-22T10:57:39;101159.00;;;25.90
12854;BMP180;6495;51.808;7.478;2023-06-22T11:00:13;101153.00;;;26.00
12854;BMP180;6495;51.808;7.478;2023-06-22T11:02:47;101146.00;;;26.00
12854;BMP180;6495;51.808;7.478;2023-06-22T11:05:18;101145.00;;;26.10
12854;BMP180;6495;51.808;7.478;2023-06-22T11:07:46;101151.00;;;26.10
12854;BMP180;6495;51.808;7.478;2023-06-22T11:10:20;101150.00;;;26.10
12854;BMP180;6495;51.808;7.478;2023-06-22T11:12:50;101141.00;;;26.20
12854;BMP180;6495;51.808;7.478;2023-06-22T11:15:20;101141.00;;;26.20
12854;BMP180;6495;51.808;7.478;2023-06-22T11:17:48;101147.00;;;26.30
12854;BMP180;6495;51.808;7.478;2023-06-22T11:20:16;101138.00;;;26.40
12854;BMP180;6495;51.808;7.478;2023-06-22T11:22:45;101133.00;;;26.40
12854;BMP180;6495;51.808;7.478;2023-06-22T11:25:13;101127.00;;;26.40
12854;BMP180;6495;51.808;7.478;2023-06-22T11:27:43;101127.00;;;26.40
12854;BMP180;6495;51.808;7.478;2023-06-22T11:30:12;101128.00;;;26.40
12854;BMP180;6495;51.808;7.478;2023-06-22T11:32:41;101132.00;;;26.50
12854;BMP180;6495;51.808;7.478;2023-06-22T11:35:09;101142.00;;;26.50
12854;BMP180;6495;51.808;7.478;2023-06-22T11:37:40;101149.00;;;26.50
12854;BMP180;6495;51.808;7.478;2023-06-22T11:40:14;101150.00;;;26.50
12854;BMP180;6495;51.808;7.478;2023-06-22T11:42:45;101160.00;;;26.50
12854;BMP180;6495;51.808;7.478;2023-06-22T11:45:14;101162.00;;;26.60
12854;BMP180;6495;51.808;7.478;2023-06-22T11:47:43;101164.00;;;26.60
12854;BMP180;6495;51.808;7.478;2023-06-22T11:50:11;101167.00;;;26.60
12854;BMP180;6495;51.808;7.478;2023-06-22T11:52:40;101163.00;;;26.60
12854;BMP180;6495;51.808;7.478;2023-06-22T11:55:09;101156.00;;;26.60
12854;BMP180;6495;51.808;7.478;2023-06-22T11:57:56;101156.00;;;26.60
12854;BMP180;6495;51.808;7.478;2023-06-22T12:00:26;101152.00;;;26.60
12854;BMP180;6495;51.808;7.478;2023-06-22T12:02:59;101145.00;;;26.60
12854;BMP180;6495;51.808;7.478;2023-06-22T12:05:29;101146.00;;;26.70
12854;BMP180;6495;51.808;7.478;2023-06-22T12:07:57;101147.00;;;26.60
12854;BMP180;6495;51.808;7.478;2023-06-22T12:10:26;101146.00;;;26.60
12854;BMP180;6495;51.808;7.478;2023-06-22T12:12:57;101145.00;;;26.60
12854;BMP180;6495;51.808;7.478;2023-06-22T12:15:27;101155.00;;;26.60
12854;BMP180;6495;51.808;7.478;2023-06-22T12:17:55;101155.00;;;26.60
12854;BMP180;6495;51.808;7.478;2023-06-22T12:20:24;101153.00;;;26.50
12854;BMP180;6495;51.808;7.478;2023-06-22T12:22:52;101155.00;;;26.60
12854;BMP180;6495;51.808;7.478;2023-06-22T12:25:23;101157.00;;;26.60
12854;BMP180;6495;51.808;7.478;2023-06-22T12:27:51;101163.00;;;26.60
12854;BMP180;6495;51.808;7.478;2023-06-22T12:30:22;101163.00;;;26.60
12854;BMP180;6495;51.808;7.478;2023-06-22T12:32:50;101162.00;;;26.60
12854;BMP180;6495;51.808;7.478;2023-06-22T12:35:22;101164.00;;;26.50
12854;BMP180;6495;51.808;7.478;2023-06-22T12:37:50;101166.00;;;26.50
12854;BMP180;6495;51.808;7.478;2023-06-22T12:40:19;101167.00;;;26.50
12854;BMP180;6495;51.808;7.478;2023-06-22T12:42:48;101164.00;;;26.50
12854;BMP180;6495;51.808;7.478;2023-06-22T12:45:16;101160.00;;;26.50
12854;BMP180;6495;51.808;7.478;2023-06-22T12:47:47;101144.00;;;26.50
12854;BMP180;6495;51.808;7.478;2023-06-22T12:50:17;101124.00;;;26.40
12854;BMP180;6495;51.808;7.478;2023-06-22T12:53:03;101127.00;;;26.40
12854;BMP180;6495;51.808;7.478;2023-06-22T12:55:51;101123.00;;;26.30
12854;BMP180;6495;51.808;7.478;2023-06-22T12:58:37;101120.00;;;26.30
12854;BMP180;6495;51.808;7.478;2023-06-22T13:01:23;101120.00;;;26.20
12854;BMP180;6495;51.808;7.478;2023-06-22T13:04:11;101107.00;;;26.20
12854;BMP180;6495;51.808;7.478;2023-06-22T13:06:57;101103.00;;;26.20
12854;BMP180;6495;51.808;7.478;2023-06-22T13:09:49;101077.00;;;26.10
12854;BMP180;6495;51.808;7.478;2023-06-22T13:12:35;101064.00;;;26.10
12854;BMP180;6495;51.808;7.478;2023-06-22T13:15:21;101039.00;;;26.10
12854;BMP180;6495;51.808;7.478;2023-06-22T13:18:07;101021.00;;;26.00
12854;BMP180;6495;51.808;7.478;2023-06-22T13:20:54;101017.00;;;25.90
12854;BMP180;6495;51.808;7.478;2023-06-22T13:23:40;101011.00;;;25.80
12854;BMP180;6495;51.808;7.478;2023-06-22T13:26:26;100998.00;;;25.70
12854;BMP180;6495;51.808;7.478;2023-06-22T13:29:12;100980.00;;;25.60
12854;BMP180;6495;51.808;7.478;2023-06-22T13:31:58;100955.00;;;25.40
12854;BMP180;6495;51.808;7.478;2023-06-22T13:34:44;100942.00;;;25.40
12854;BMP180;6495;51.808;7.478;2023-06-22T13:37:32;100935.00;;;25.30
12854;BMP180;6495;51.808;7.478;2023-06-22T13:40:18;100948.00;;;25.20
12854;BMP180;6495;51.808;7.478;2023-06-22T13:43:04;100940.00;;;25.20
12854;BMP180;6495;51.808;7.478;2023-06-22T13:45:50;100949.00;;;25.10
12854;BMP180;6495;51.808;7.478;2023-06-22T13:48:36;100959.00;;;25.00
12854;BMP180;6495;51.808;7.478;2023-06-22T13:51:23;100952.00;;;25.00
12854;BMP180;6495;51.808;7.478;2023-06-22T13:54:10;100952.00;;;24.90
12854;BMP180;6495;51.808;7.478;2023-06-22T13:57:07;100946.00;;;24.80
12854;BMP180;6495;51.808;7.478;2023-06-22T13:59:53;100943.00;;;24.80
12854;BMP180;6495;51.808;7.478;2023-06-22T14:02:39;100928.00;;;24.70
12854;BMP180;6495;51.808;7.478;2023-06-22T14:05:25;100918.00;;;24.70
12854;BMP180;6495;51.808;7.478;2023-06-22T14:08:14;100912.00;;;24.70
12854;BMP180;6495;51.808;7.478;2023-06-22T14:11:22;100917.00;;;24.70
12854;BMP180;6495;51.808;7.478;2023-06-22T14:14:08;100940.00;;;24.70
12854;BMP180;6495;51.808;7.478;2023-06-22T14:16:54;100931.00;;;24.80
12854;BMP180;6495;51.808;7.478;2023-06-22T14:19:40;100920.00;;;24.80
12854;BMP180;6495;51.808;7.478;2023-06-22T14:22:26;100923.00;;;24.80
12854;BMP180;6495;51.808;7.478;2023-06-22T14:25:12;100922.00;;;24.90
12854;BMP180;6495;51.808;7.478;2023-06-22T14:27:59;100904.00;;;24.90
12854;BMP180;6495;51.808;7.478;2023-06-22T14:30:45;100887.00;;;24.80
12854;BMP180;6495;51.808;7.478;2023-06-22T14:33:31;100886.00;;;24.80
12854;BMP180;6495;51.808;7.478;2023-06-22T14:36:17;100886.00;;;24.90